Am Tubarao — A8ZA9 — position and weather

sailwx.info

Track history (hours):
 
Tides and Currents Weather Stations Pressure Air Temp Water Temp Dewpoint Dewpoint Depression Visibility Wind Speed Wind Dir Waves Ship Positions

Am Tubarao

Last reported at 2017-Aug-13 14:51 UTC. Time now 2017-Aug-20 19:17 UTC.
Position S 02°07' W 044°09'.

Length 230 m; draft 14.7 m.

Type: Cargo ship. MMSI: 636015171.

Date/timePositionNaut miles runAvg speedWind from/ knotsBaromVisibWave heightAir tempDewpointWater temp
2017-Aug-13 14:51S 02°07' W 044°09'411.2
2017-Aug-13 14:30S 02°11' W 044°11'510.5
2017-Aug-13 14:00S 02°15' W 044°13'5 9.9
2017-Aug-13 13:30S 02°19' W 044°16'5 9.1
2017-Aug-13 13:00S 02°23' W 044°19'4 8.4
2017-Aug-13 12:30S 02°27' W 044°21'4 7.9
2017-Aug-13 12:00S 02°30' W 044°23'3 6.6
2017-Aug-13 11:30S 02°33' W 044°23'1 0.7
2017-Aug-13 10:46S 02°34' W 044°23'0 0.0
2017-Aug-13 10:28S 02°34' W 044°23'0 0.0
2017-Aug-13 09:52S 02°34' W 044°23'0 0.0
2017-Aug-13 09:25S 02°34' W 044°23'0 0.0
2017-Aug-13 08:58S 02°34' W 044°23'0 0.0
2017-Aug-13 08:28S 02°34' W 044°23'0 0.0
2017-Aug-13 02:46S 02°34' W 044°23'0 0.0
2017-Aug-13 02:10S 02°34' W 044°23'0 0.0
2017-Aug-13 01:43S 02°34' W 044°23'0 0.0
2017-Aug-13 01:19S 02°34' W 044°23'0 0.0
2017-Aug-13 00:52S 02°34' W 044°23'0 0.0
2017-Aug-13 00:28S 02°34' W 044°23'0 0.0
2017-Aug-12 23:58S 02°34' W 044°23'0 0.0
2017-Aug-12 23:16S 02°34' W 044°23'0 0.0
2017-Aug-12 21:40S 02°34' W 044°23'0 0.0
2017-Aug-12 21:10S 02°34' W 044°23'0 0.0
2017-Aug-12 20:58S 02°34' W 044°23'0 0.0
2017-Aug-12 20:25S 02°34' W 044°23'0 0.0
2017-Aug-12 19:16S 02°34' W 044°23'0 0.0
2017-Aug-12 18:52S 02°34' W 044°23'0 0.0
2017-Aug-12 17:58S 02°34' W 044°23'0 0.0
2017-Aug-12 17:28S 02°34' W 044°23'0 0.0
2017-Aug-12 16:58S 02°34' W 044°23'0 0.0
2017-Aug-12 16:25S 02°34' W 044°23'0 0.0
2017-Aug-12 15:58S 02°34' W 044°23'0 0.0
2017-Aug-12 15:28S 02°34' W 044°23'0 0.0
2017-Aug-12 14:59S 02°34' W 044°23'0 0.0
2017-Aug-12 14:29S 02°34' W 044°23'0 0.0
2017-Aug-12 13:47S 02°34' W 044°23'0 0.0
2017-Aug-12 13:25S 02°34' W 044°23'0 0.0
2017-Aug-12 12:55S 02°34' W 044°23'0 0.0
2017-Aug-12 12:29S 02°34' W 044°23'0 0.0
2017-Aug-12 11:59S 02°34' W 044°23'0 0.0
2017-Aug-12 11:25S 02°34' W 044°23'0 0.0
2017-Aug-12 10:58S 02°34' W 044°23'0 0.0
2017-Aug-12 10:28S 02°34' W 044°23'0 0.0
2017-Aug-12 09:58S 02°34' W 044°23'0 0.0
2017-Aug-12 09:28S 02°34' W 044°23'0 0.0
2017-Aug-12 08:58S 02°34' W 044°23'0 0.0
2017-Aug-12 08:30S 02°34' W 044°23'1 1.3
2017-Aug-12 08:01S 02°34' W 044°23'4 8.6
2017-Aug-12 07:31S 02°30' W 044°23'5 9.4
2017-Aug-12 07:01S 02°26' W 044°19'3 5.0
2017-Aug-12 06:28S 02°25' W 044°17'0 0.1
2017-Aug-12 05:58S 02°25' W 044°17'0 0.1
2017-Aug-12 05:28S 02°25' W 044°17'0 0.1
2017-Aug-12 04:58S 02°25' W 044°17'0 0.0
2017-Aug-12 04:28S 02°25' W 044°17'0 0.1
2017-Aug-12 03:58S 02°25' W 044°17'0 0.0
2017-Aug-12 03:28S 02°25' W 044°17'0 0.0
2017-Aug-12 02:58S 02°25' W 044°17'0 0.3
2017-Aug-12 02:28S 02°25' W 044°17'0 0.2
2017-Aug-12 01:58S 02°25' W 044°17'0 0.1
2017-Aug-12 01:28S 02°25' W 044°17'0 0.0
2017-Aug-12 00:58S 02°25' W 044°17'0 0.0
2017-Aug-12 00:28S 02°25' W 044°17'0 0.0
2017-Aug-11 23:58S 02°25' W 044°17'0 0.0
2017-Aug-11 23:28S 02°25' W 044°17'0 0.0
2017-Aug-11 22:58S 02°25' W 044°17'0 0.0
2017-Aug-11 22:28S 02°25' W 044°17'0 0.0
2017-Aug-11 21:58S 02°25' W 044°17'0 0.0
2017-Aug-11 21:28S 02°25' W 044°17'0 0.0
2017-Aug-11 20:58S 02°25' W 044°17'0 0.1
2017-Aug-11 20:28S 02°25' W 044°17'0 0.0
2017-Aug-11 19:58S 02°25' W 044°17'0 0.0
2017-Aug-11 19:28S 02°25' W 044°17'0 0.3
2017-Aug-11 18:58S 02°25' W 044°17'0 0.2
2017-Aug-11 18:28S 02°25' W 044°17'0 0.1
2017-Aug-11 17:58S 02°25' W 044°17'0 0.0
2017-Aug-11 17:28S 02°25' W 044°17'0 0.0
2017-Aug-11 16:58S 02°25' W 044°17'0 0.0
2017-Aug-11 16:28S 02°25' W 044°17'0 0.1
2017-Aug-11 15:58S 02°25' W 044°17'0 0.1
2017-Aug-11 15:28S 02°25' W 044°17'0 0.1
2017-Aug-11 14:58S 02°25' W 044°17'0 0.2
2017-Aug-11 14:28S 02°25' W 044°17'0 0.1
2017-Aug-11 13:28S 02°25' W 044°17'0 0.1
2017-Aug-11 12:58S 02°25' W 044°17'0 0.0
2017-Aug-11 12:28S 02°25' W 044°17'0 0.0
2017-Aug-11 11:58S 02°25' W 044°17'0 0.1
2017-Aug-11 11:28S 02°25' W 044°17'0 0.0
2017-Aug-11 10:58S 02°25' W 044°17'0 0.0
2017-Aug-11 10:28S 02°25' W 044°17'0 0.0
2017-Aug-11 09:58S 02°25' W 044°17'0 0.0
2017-Aug-11 09:28S 02°25' W 044°17'0 0.0
2017-Aug-11 08:58S 02°25' W 044°17'0 0.1
2017-Aug-11 08:28S 02°25' W 044°17'0 0.0
2017-Aug-11 07:58S 02°25' W 044°17'0 0.0
2017-Aug-11 07:28S 02°25' W 044°17'0 0.1
2017-Aug-11 06:58S 02°25' W 044°17'0 0.3
2017-Aug-11 06:28S 02°25' W 044°17'0 0.1
2017-Aug-11 05:58S 02°25' W 044°17'0 0.1
2017-Aug-11 05:28S 02°25' W 044°17'0 0.0
2017-Aug-11 04:58S 02°25' W 044°17'0 0.0
2017-Aug-11 04:28S 02°25' W 044°17'0 0.0
2017-Aug-11 03:55S 02°25' W 044°17'0 0.0
2017-Aug-11 03:28S 02°25' W 044°17'0 0.0
2017-Aug-11 02:58S 02°25' W 044°17'0 0.0
2017-Aug-11 02:28S 02°25' W 044°17'0 0.2
2017-Aug-11 01:58S 02°25' W 044°17'0 0.3
2017-Aug-11 01:28S 02°25' W 044°17'0 0.1
2017-Aug-11 00:58S 02°25' W 044°17'0 0.0
2017-Aug-11 00:28S 02°25' W 044°17'0 0.0
2017-Aug-10 23:58S 02°25' W 044°17'0 0.0
2017-Aug-10 23:28S 02°25' W 044°17'0 0.0
2017-Aug-10 22:58S 02°25' W 044°17'0 0.0
2017-Aug-10 22:28S 02°25' W 044°17'0 0.0
2017-Aug-10 21:55S 02°25' W 044°17'0 0.0
2017-Aug-10 21:28S 02°25' W 044°17'0 0.0
2017-Aug-10 20:58S 02°25' W 044°17'0 0.0
2017-Aug-10 20:28S 02°25' W 044°17'0 0.0
2017-Aug-10 19:58S 02°25' W 044°17'0 0.0
2017-Aug-10 19:28S 02°25' W 044°17'0 0.0
2017-Aug-10 18:58S 02°25' W 044°17'0 0.3
2017-Aug-10 18:28S 02°25' W 044°17'0 0.2
2017-Aug-10 17:58S 02°25' W 044°17'0 0.1
2017-Aug-10 17:28S 02°25' W 044°17'0 0.0
2017-Aug-10 16:58S 02°25' W 044°17'0 0.0
2017-Aug-10 16:28S 02°25' W 044°17'0 0.0
2017-Aug-10 15:58S 02°25' W 044°17'0 0.0
2017-Aug-10 15:28S 02°25' W 044°17'0 0.1
2017-Aug-10 14:58S 02°25' W 044°17'0 0.1
2017-Aug-10 14:28S 02°25' W 044°17'0 0.1
2017-Aug-10 13:58S 02°25' W 044°17'0 0.2
2017-Aug-10 13:28S 02°25' W 044°17'0 0.2
2017-Aug-10 13:01S 02°25' W 044°17'0 0.1
2017-Aug-10 12:28S 02°25' W 044°17'0 0.0
2017-Aug-10 12:01S 02°25' W 044°17'0 0.1
2017-Aug-10 11:28S 02°25' W 044°17'0 0.0
2017-Aug-10 10:57S 02°25' W 044°17'0 0.0
2017-Aug-10 10:28S 02°25' W 044°17'0 0.0
2017-Aug-10 09:59S 02°25' W 044°17'0 0.0
2017-Aug-10 09:24S 02°25' W 044°17'0 0.0
2017-Aug-10 08:58S 02°25' W 044°17'0 0.0
2017-Aug-10 08:30S 02°25' W 044°17'0 0.0
2017-Aug-10 08:01S 02°25' W 044°17'0 0.0
2017-Aug-10 07:31S 02°25' W 044°17'0 0.0
2017-Aug-10 06:58S 02°25' W 044°17'0 0.1
2017-Aug-10 06:28S 02°25' W 044°17'0 0.3
2017-Aug-10 05:58S 02°25' W 044°17'0 0.1
2017-Aug-10 05:31S 02°25' W 044°17'0 0.1
2017-Aug-10 05:01S 02°25' W 044°17'0 0.0
2017-Aug-10 04:28S 02°25' W 044°17'0 0.0
2017-Aug-10 04:01S 02°25' W 044°17'0 0.0
2017-Aug-10 03:30S 02°25' W 044°17'0 0.0
2017-Aug-10 03:01S 02°25' W 044°17'0 0.0
2017-Aug-10 02:30S 02°25' W 044°17'0 0.1
2017-Aug-10 02:01S 02°25' W 044°17'0 0.1
2017-Aug-10 01:30S 02°25' W 044°17'0 0.4
2017-Aug-10 01:00S 02°25' W 044°17'0 0.0
2017-Aug-10 00:27S 02°25' W 044°17'0 0.0
2017-Aug-10 00:00S 02°25' W 044°17'0 0.0
2017-Aug-09 23:30S 02°25' W 044°17'0 0.0
2017-Aug-09 23:00S 02°25' W 044°17'0 0.0
2017-Aug-09 22:31S 02°25' W 044°17'0 0.0
2017-Aug-09 22:00S 02°25' W 044°17'0 0.0
2017-Aug-09 21:30S 02°25' W 044°17'0 0.0
2017-Aug-09 21:00S 02°25' W 044°17'0 0.0
2017-Aug-09 20:30S 02°25' W 044°17'0 0.0
2017-Aug-09 20:00S 02°25' W 044°17'0 0.1
2017-Aug-09 19:30S 02°25' W 044°17'0 0.0
2017-Aug-09 19:00S 02°25' W 044°17'0 0.0
2017-Aug-09 18:30S 02°25' W 044°17'0 0.1
2017-Aug-09 18:00S 02°25' W 044°17'0 0.2
2017-Aug-09 17:30S 02°25' W 044°17'0 0.1
2017-Aug-09 17:00S 02°25' W 044°17'0 0.1
2017-Aug-09 16:30S 02°25' W 044°17'0 0.0
2017-Aug-09 16:00S 02°25' W 044°17'0 0.0
2017-Aug-09 15:30S 02°25' W 044°17'0 0.0
2017-Aug-09 15:00S 02°25' W 044°17'0 0.1
2017-Aug-09 14:30S 02°25' W 044°17'0 0.1
2017-Aug-09 14:00S 02°25' W 044°17'0 0.0
2017-Aug-09 13:30S 02°25' W 044°17'0 0.2
2017-Aug-09 13:00S 02°25' W 044°17'0 0.2
2017-Aug-09 12:30S 02°25' W 044°17'0 0.1
2017-Aug-09 12:00S 02°25' W 044°17'0 0.0
2017-Aug-09 11:27S 02°25' W 044°17'0 0.1
2017-Aug-09 11:00S 02°25' W 044°17'0 0.0
2017-Aug-09 10:30S 02°25' W 044°17'0 0.0
2017-Aug-09 10:00S 02°25' W 044°17'0 0.0
2017-Aug-09 09:30S 02°25' W 044°17'0 0.0
2017-Aug-09 09:00S 02°25' W 044°17'0 0.0
2017-Aug-09 08:30S 02°25' W 044°17'0 0.0
2017-Aug-09 08:00S 02°25' W 044°17'0 0.0
2017-Aug-09 07:30S 02°25' W 044°17'0 0.0
2017-Aug-09 07:00S 02°25' W 044°17'0 0.0
2017-Aug-09 06:30S 02°25' W 044°17'0 0.0
2017-Aug-09 06:00S 02°25' W 044°17'0 0.5
2017-Aug-09 05:30S 02°25' W 044°17'0 0.0
2017-Aug-09 05:00S 02°25' W 044°17'0 0.0
2017-Aug-09 04:30S 02°25' W 044°17'0 0.0
2017-Aug-09 04:00S 02°25' W 044°17'0 0.0
2017-Aug-09 03:30S 02°25' W 044°17'0 0.0
2017-Aug-09 03:00S 02°25' W 044°17'0 0.0
2017-Aug-09 02:30S 02°25' W 044°17'0 0.1
2017-Aug-09 02:00S 02°25' W 044°17'0 0.0
2017-Aug-09 01:30S 02°25' W 044°17'0 0.2
2017-Aug-09 01:00S 02°25' W 044°17'0 0.2
2017-Aug-09 00:30S 02°25' W 044°17'0 0.1
2017-Aug-09 00:00S 02°25' W 044°17'0 0.1
2017-Aug-08 23:30S 02°25' W 044°17'0 0.0
2017-Aug-08 23:00S 02°25' W 044°17'0 0.0
2017-Aug-08 22:27S 02°25' W 044°17'0 0.0
2017-Aug-08 22:00S 02°25' W 044°17'0 0.1
2017-Aug-08 21:30S 02°25' W 044°17'0 0.0
2017-Aug-08 21:00S 02°25' W 044°17'0 0.0
2017-Aug-08 20:30S 02°25' W 044°17'0 0.0
2017-Aug-08 20:00S 02°25' W 044°17'0 0.1
2017-Aug-08 19:30S 02°25' W 044°17'0 0.0
2017-Aug-08 19:00S 02°25' W 044°17'0 0.0
2017-Aug-08 18:30S 02°25' W 044°17'0 0.0
2017-Aug-08 18:00S 02°25' W 044°17'0 0.0
2017-Aug-08 17:30S 02°25' W 044°17'0 0.3
2017-Aug-08 17:00S 02°25' W 044°17'0 0.2
2017-Aug-08 16:30S 02°25' W 044°17'0 0.1
2017-Aug-08 16:00S 02°25' W 044°17'0 0.1
2017-Aug-08 15:30S 02°25' W 044°17'0 0.0
2017-Aug-08 15:00S 02°25' W 044°17'0 0.0
2017-Aug-08 14:27S 02°25' W 044°17'0 0.1
2017-Aug-08 14:00S 02°25' W 044°17'0 0.1
2017-Aug-08 13:30S 02°25' W 044°17'0 0.1
2017-Aug-08 13:00S 02°25' W 044°17'0 0.3
2017-Aug-08 12:30S 02°25' W 044°17'0 0.1
2017-Aug-08 12:00S 02°25' W 044°17'0 0.1
2017-Aug-08 11:30S 02°25' W 044°17'0 0.1
2017-Aug-08 11:00S 02°25' W 044°17'0 0.0
2017-Aug-08 10:30S 02°25' W 044°17'0 0.0
2017-Aug-08 10:00S 02°25' W 044°17'0 0.1
2017-Aug-08 09:30S 02°25' W 044°17'0 0.1
2017-Aug-08 09:00S 02°25' W 044°17'0 0.0
2017-Aug-08 08:30S 02°25' W 044°17'0 0.0
2017-Aug-08 07:54S 02°25' W 044°17'0 0.1
2017-Aug-08 07:30S 02°25' W 044°17'0 0.1
2017-Aug-08 07:00S 02°25' W 044°17'0 0.0
2017-Aug-08 06:30S 02°25' W 044°17'0 0.0
2017-Aug-08 06:00S 02°25' W 044°17'0 0.0
2017-Aug-08 05:30S 02°25' W 044°17'0 0.3
2017-Aug-08 05:00S 02°25' W 044°17'0 0.2
2017-Aug-08 04:30S 02°25' W 044°17'0 0.1
2017-Aug-08 04:00S 02°25' W 044°17'0 0.0
2017-Aug-08 03:30S 02°25' W 044°17'0 0.0
2017-Aug-08 03:00S 02°25' W 044°17'0 0.0
2017-Aug-08 02:30S 02°25' W 044°17'0 0.0
2017-Aug-08 02:00S 02°25' W 044°17'0 0.0
2017-Aug-08 01:30S 02°25' W 044°17'0 0.0
2017-Aug-08 01:00S 02°25' W 044°17'0 0.1
2017-Aug-08 00:30S 02°25' W 044°17'0 0.3
2017-Aug-08 00:00S 02°25' W 044°17'0 0.1
2017-Aug-07 23:30S 02°25' W 044°17'0 0.1
2017-Aug-07 23:00S 02°25' W 044°17'0 0.0
2017-Aug-07 22:30S 02°25' W 044°17'0 0.0
2017-Aug-07 22:00S 02°25' W 044°17'0 0.0
2017-Aug-07 21:30S 02°25' W 044°17'0 0.0
2017-Aug-07 21:00S 02°25' W 044°17'0 0.0
2017-Aug-07 20:30S 02°25' W 044°17'0 0.0
2017-Aug-07 20:00S 02°25' W 044°17'0 0.0
2017-Aug-07 19:30S 02°25' W 044°17'0 0.0
2017-Aug-07 19:00S 02°25' W 044°17'0 0.0
2017-Aug-07 18:30S 02°25' W 044°17'0 0.0
2017-Aug-07 18:00S 02°25' W 044°17'0 0.0
2017-Aug-07 17:30S 02°25' W 044°17'0 0.2
2017-Aug-07 16:57S 02°25' W 044°17'0 0.4
2017-Aug-07 16:27S 02°25' W 044°17'0 0.0
2017-Aug-07 16:00S 02°25' W 044°17'0 0.0
2017-Aug-07 15:30S 02°25' W 044°17'0 0.0
2017-Aug-07 15:00S 02°25' W 044°17'0 0.0
2017-Aug-07 14:30S 02°25' W 044°17'0 0.0
2017-Aug-07 14:00S 02°25' W 044°17'0 0.1
2017-Aug-07 13:30S 02°25' W 044°17'0 0.1
2017-Aug-07 13:00S 02°25' W 044°17'0 0.1
2017-Aug-07 12:30S 02°25' W 044°17'0 0.2
2017-Aug-07 12:00S 02°25' W 044°17'0 0.1
2017-Aug-07 11:30S 02°25' W 044°17'0 0.2
2017-Aug-07 11:00S 02°25' W 044°17'0 0.0
2017-Aug-07 10:30S 02°25' W 044°17'0 0.0
2017-Aug-07 10:00S 02°25' W 044°17'0 0.1
2017-Aug-07 09:30S 02°25' W 044°17'0 0.0
2017-Aug-07 09:00S 02°25' W 044°17'0 0.1
2017-Aug-07 08:30S 02°25' W 044°17'0 0.0
2017-Aug-07 08:00S 02°25' W 044°17'0 0.1
2017-Aug-07 07:30S 02°25' W 044°17'0 0.0
2017-Aug-07 07:00S 02°25' W 044°17'0 0.0
2017-Aug-07 06:30S 02°25' W 044°17'0 0.0
2017-Aug-07 06:00S 02°25' W 044°17'0 0.0
2017-Aug-07 05:30S 02°25' W 044°17'0 0.0
2017-Aug-07 05:00S 02°25' W 044°17'0 0.1
2017-Aug-07 04:30S 02°25' W 044°17'0 0.2
2017-Aug-07 04:00S 02°25' W 044°17'0 0.2
2017-Aug-07 03:30S 02°25' W 044°17'0 0.1
2017-Aug-07 03:00S 02°25' W 044°17'0 0.0
2017-Aug-07 02:30S 02°25' W 044°17'0 0.0
2017-Aug-07 02:00S 02°25' W 044°17'0 0.0
2017-Aug-07 01:30S 02°25' W 044°17'0 0.0
2017-Aug-07 01:00S 02°25' W 044°17'0 0.0
2017-Aug-07 00:30S 02°25' W 044°17'0 0.0
2017-Aug-07 00:00S 02°25' W 044°17'0 0.3
2017-Aug-06 23:30S 02°25' W 044°17'0 0.2
2017-Aug-06 23:00S 02°25' W 044°17'0 0.1
2017-Aug-06 22:30S 02°25' W 044°17'0 0.0
2017-Aug-06 22:00S 02°25' W 044°17'0 0.0
2017-Aug-06 21:30S 02°25' W 044°17'0 0.0
2017-Aug-06 21:00S 02°25' W 044°17'0 0.0
2017-Aug-06 20:30S 02°25' W 044°17'0 0.0
2017-Aug-06 20:00S 02°25' W 044°17'0 0.0
2017-Aug-06 19:30S 02°25' W 044°17'0 0.0
2017-Aug-06 19:00S 02°25' W 044°17'0 0.0
2017-Aug-06 18:30S 02°25' W 044°17'0 0.0
2017-Aug-06 18:00S 02°25' W 044°17'0 0.1
2017-Aug-06 17:30S 02°25' W 044°17'0 0.0
2017-Aug-06 17:00S 02°25' W 044°17'0 0.0
2017-Aug-06 16:30S 02°25' W 044°17'0 0.4
2017-Aug-06 16:00S 02°25' W 044°17'0 0.2
2017-Aug-06 15:30S 02°25' W 044°17'0 0.0
2017-Aug-06 14:58S 02°25' W 044°17'0 0.0
2017-Aug-06 14:30S 02°25' W 044°17'0 0.0
2017-Aug-06 13:19S 02°25' W 044°17'0 0.1
2017-Aug-06 12:19S 02°25' W 044°17'0 0.0
2017-Aug-06 12:00S 02°25' W 044°17'0 0.1
2017-Aug-06 11:30S 02°25' W 044°17'0 0.3
2017-Aug-06 11:00S 02°25' W 044°17'0 0.2
2017-Aug-06 10:30S 02°25' W 044°17'0 0.1
2017-Aug-06 10:00S 02°25' W 044°17'0 0.0
2017-Aug-06 09:30S 02°25' W 044°17'0 0.0
2017-Aug-06 09:00S 02°25' W 044°17'0 0.0
2017-Aug-06 08:30S 02°25' W 044°17'0 0.0
2017-Aug-06 08:00S 02°25' W 044°17'0 0.0
2017-Aug-06 07:30S 02°25' W 044°17'0 0.0
2017-Aug-06 07:00S 02°25' W 044°17'0 0.0
2017-Aug-06 06:30S 02°25' W 044°17'0 0.0
2017-Aug-06 06:00S 02°25' W 044°17'0 0.0
2017-Aug-06 05:30S 02°25' W 044°17'0 0.0
2017-Aug-06 05:00S 02°25' W 044°17'0 0.0
2017-Aug-06 04:30S 02°25' W 044°17'0 0.1
2017-Aug-06 04:00S 02°25' W 044°17'0 0.2
2017-Aug-06 03:30S 02°25' W 044°17'0 0.2
2017-Aug-06 03:00S 02°25' W 044°17'0 0.0
2017-Aug-06 02:30S 02°25' W 044°17'0 0.0
2017-Aug-06 02:00S 02°25' W 044°17'0 0.0
2017-Aug-06 01:30S 02°25' W 044°17'0 0.0
2017-Aug-06 01:00S 02°25' W 044°17'0 0.0
2017-Aug-06 00:30S 02°25' W 044°17'0 0.0
2017-Aug-06 00:00S 02°25' W 044°17'0 0.0
2017-Aug-05 23:30S 02°25' W 044°17'0 0.4
2017-Aug-05 23:00S 02°25' W 044°17'0 0.2
2017-Aug-05 22:30S 02°25' W 044°17'0 0.0
2017-Aug-05 21:57S 02°25' W 044°17'0 0.0
2017-Aug-05 21:30S 02°25' W 044°17'0 0.0
2017-Aug-05 21:00S 02°25' W 044°17'0 0.0
2017-Aug-05 20:30S 02°25' W 044°17'0 0.0
2017-Aug-05 19:57S 02°25' W 044°17'0 0.0
2017-Aug-05 19:30S 02°25' W 044°17'0 0.0
2017-Aug-05 19:00S 02°25' W 044°17'0 0.0
2017-Aug-05 18:27S 02°25' W 044°17'0 0.0
2017-Aug-05 18:00S 02°25' W 044°17'0 0.0
2017-Aug-05 17:30S 02°25' W 044°17'0 0.0
2017-Aug-05 17:00S 02°25' W 044°17'0 0.0
2017-Aug-05 16:29S 02°25' W 044°17'0 0.0
2017-Aug-05 15:57S 02°25' W 044°17'0 0.0
2017-Aug-05 15:30S 02°25' W 044°17'0 0.3
2017-Aug-05 14:59S 02°25' W 044°17'0 0.2
2017-Aug-05 14:27S 02°25' W 044°17'0 0.1
2017-Aug-05 14:00S 02°25' W 044°17'0 0.0
2017-Aug-05 13:29S 02°25' W 044°17'0 0.0
2017-Aug-05 13:00S 02°25' W 044°17'0 0.0
2017-Aug-05 12:29S 02°25' W 044°17'0 0.0
2017-Aug-05 12:00S 02°25' W 044°17'0 0.1
2017-Aug-05 11:29S 02°25' W 044°17'0 0.0
2017-Aug-05 10:59S 02°25' W 044°17'0 0.3
2017-Aug-05 10:27S 02°25' W 044°17'0 0.1
2017-Aug-05 09:59S 02°25' W 044°17'0 0.1
2017-Aug-05 09:29S 02°25' W 044°17'0 0.1
2017-Aug-05 08:59S 02°25' W 044°17'0 0.0
2017-Aug-05 08:30S 02°25' W 044°17'0 0.0
2017-Aug-05 07:56S 02°25' W 044°17'0 0.0
2017-Aug-05 07:29S 02°25' W 044°17'0 0.0
2017-Aug-05 07:00S 02°25' W 044°17'0 0.0
2017-Aug-05 06:29S 02°25' W 044°17'0 0.0
2017-Aug-05 05:59S 02°25' W 044°17'0 0.0
2017-Aug-05 05:29S 02°25' W 044°17'0 0.0
2017-Aug-05 04:59S 02°25' W 044°17'0 0.0
2017-Aug-05 04:29S 02°25' W 044°17'0 0.0
2017-Aug-05 03:59S 02°25' W 044°17'0 0.1
2017-Aug-05 03:29S 02°25' W 044°17'0 0.1
2017-Aug-05 02:59S 02°25' W 044°17'0 0.2
2017-Aug-05 02:26S 02°25' W 044°17'0 0.1
2017-Aug-05 01:59S 02°25' W 044°17'0 0.1
2017-Aug-05 01:29S 02°25' W 044°17'0 0.0
2017-Aug-05 00:59S 02°25' W 044°17'0 0.0
2017-Aug-05 00:29S 02°25' W 044°17'0 0.0
2017-Aug-04 23:59S 02°25' W 044°17'0 0.1
2017-Aug-04 23:29S 02°25' W 044°17'0 0.0
2017-Aug-04 22:59S 02°25' W 044°17'0 0.2
2017-Aug-04 22:29S 02°25' W 044°17'0 0.2
2017-Aug-04 21:59S 02°25' W 044°17'0 0.1
2017-Aug-04 21:29S 02°25' W 044°17'0 0.1
2017-Aug-04 20:59S 02°25' W 044°17'0 0.0
2017-Aug-04 20:29S 02°25' W 044°17'0 0.0
2017-Aug-04 19:59S 02°25' W 044°17'0 0.0
2017-Aug-04 19:29S 02°25' W 044°17'0 0.0
2017-Aug-04 18:59S 02°25' W 044°17'0 0.0
2017-Aug-04 18:29S 02°25' W 044°17'0 0.0
2017-Aug-04 17:59S 02°25' W 044°17'0 0.0
2017-Aug-04 17:29S 02°25' W 044°17'0 0.0
2017-Aug-04 16:59S 02°25' W 044°17'0 0.0
2017-Aug-04 16:29S 02°25' W 044°17'0 0.0
2017-Aug-04 15:59S 02°25' W 044°17'0 0.0
2017-Aug-04 15:23S 02°25' W 044°17'0 0.0
2017-Aug-04 14:59S 02°25' W 044°17'0 0.1
2017-Aug-04 13:59S 02°25' W 044°17'0 0.2
2017-Aug-04 13:29S 02°25' W 044°17'0 0.1
2017-Aug-04 12:59S 02°25' W 044°17'0 0.0
2017-Aug-04 12:29S 02°25' W 044°17'0 0.0
2017-Aug-04 11:59S 02°25' W 044°17'0 0.0
2017-Aug-04 11:29S 02°25' W 044°17'0 0.0
2017-Aug-04 10:59S 02°25' W 044°17'0 0.1
2017-Aug-04 10:29S 02°25' W 044°17'0 0.1
2017-Aug-04 09:59S 02°25' W 044°17'0 0.2
2017-Aug-04 09:29S 02°25' W 044°17'0 0.1
2017-Aug-04 08:59S 02°25' W 044°17'0 0.0
2017-Aug-04 08:29S 02°25' W 044°17'0 0.0
2017-Aug-04 07:59S 02°25' W 044°17'0 0.0
2017-Aug-04 07:29S 02°25' W 044°17'0 0.0
2017-Aug-04 06:59S 02°25' W 044°17'0 0.0
2017-Aug-04 06:29S 02°25' W 044°17'0 0.0
2017-Aug-04 05:59S 02°25' W 044°17'0 0.0
2017-Aug-04 05:29S 02°25' W 044°17'0 0.0
2017-Aug-04 04:59S 02°25' W 044°17'0 0.0
2017-Aug-04 04:29S 02°25' W 044°17'0 0.0
2017-Aug-04 03:53S 02°25' W 044°17'0 0.0
2017-Aug-04 03:29S 02°25' W 044°17'0 0.0
2017-Aug-04 02:59S 02°25' W 044°17'0 0.1
2017-Aug-04 02:29S 02°25' W 044°17'0 0.0
2017-Aug-04 01:59S 02°25' W 044°17'0 0.3
2017-Aug-04 01:29S 02°25' W 044°17'0 0.2
2017-Aug-04 00:59S 02°25' W 044°17'0 0.0
2017-Aug-04 00:29S 02°25' W 044°17'0 0.1
2017-Aug-03 23:59S 02°25' W 044°17'0 0.0
2017-Aug-03 23:26S 02°25' W 044°17'0 0.1
2017-Aug-03 22:59S 02°25' W 044°17'0 0.1
2017-Aug-03 22:29S 02°25' W 044°17'0 0.2
2017-Aug-03 21:59S 02°25' W 044°17'0 0.3
2017-Aug-03 21:23S 02°25' W 044°17'0 0.0
2017-Aug-03 20:59S 02°25' W 044°17'0 0.0
2017-Aug-03 20:29S 02°25' W 044°17'0 0.0
2017-Aug-03 19:59S 02°25' W 044°17'0 0.0
2017-Aug-03 19:29S 02°25' W 044°17'0 0.0
2017-Aug-03 18:59S 02°25' W 044°17'0 0.0
2017-Aug-03 18:29S 02°25' W 044°17'0 0.0
2017-Aug-03 17:59S 02°25' W 044°17'0 0.0
2017-Aug-03 17:29S 02°25' W 044°17'0 0.0
2017-Aug-03 16:59S 02°25' W 044°17'0 0.0
2017-Aug-03 16:29S 02°25' W 044°17'0 0.0
2017-Aug-03 15:56S 02°25' W 044°17'0 0.0
2017-Aug-03 15:29S 02°25' W 044°17'0 0.0
2017-Aug-03 14:59S 02°25' W 044°17'  
Track history (hours):
 
Tides and Currents Weather Stations Pressure Air Temp Water Temp Dewpoint Dewpoint Depression Visibility Wind Speed Wind Dir Waves Ship Positions

Am Tubarao

Last reported at 2017-Aug-13 14:51 UTC. Time now 2017-Aug-20 19:17 UTC.
Position S 02°07' W 044°09'.

Length 230 m; draft 14.7 m.

Type: Cargo ship. MMSI: 636015171.

Date/timePositionNaut miles runAvg speedWind from/ knotsBaromVisibWave heightAir tempDewpointWater temp
2017-Aug-13 14:51S 02°07' W 044°09'411.2
2017-Aug-13 14:30S 02°11' W 044°11'510.5
2017-Aug-13 14:00S 02°15' W 044°13'5 9.9
2017-Aug-13 13:30S 02°19' W 044°16'5 9.1
2017-Aug-13 13:00S 02°23' W 044°19'4 8.4
2017-Aug-13 12:30S 02°27' W 044°21'4 7.9
2017-Aug-13 12:00S 02°30' W 044°23'3 6.6
2017-Aug-13 11:30S 02°33' W 044°23'1 0.7
2017-Aug-13 10:46S 02°34' W 044°23'0 0.0
2017-Aug-13 10:28S 02°34' W 044°23'0 0.0
2017-Aug-13 09:52S 02°34' W 044°23'0 0.0
2017-Aug-13 09:25S 02°34' W 044°23'0 0.0
2017-Aug-13 08:58S 02°34' W 044°23'0 0.0
2017-Aug-13 08:28S 02°34' W 044°23'0 0.0
2017-Aug-13 02:46S 02°34' W 044°23'0 0.0
2017-Aug-13 02:10S 02°34' W 044°23'0 0.0
2017-Aug-13 01:43S 02°34' W 044°23'0 0.0
2017-Aug-13 01:19S 02°34' W 044°23'0 0.0
2017-Aug-13 00:52S 02°34' W 044°23'0 0.0
2017-Aug-13 00:28S 02°34' W 044°23'0 0.0
2017-Aug-12 23:58S 02°34' W 044°23'0 0.0
2017-Aug-12 23:16S 02°34' W 044°23'0 0.0
2017-Aug-12 21:40S 02°34' W 044°23'0 0.0
2017-Aug-12 21:10S 02°34' W 044°23'0 0.0
2017-Aug-12 20:58S 02°34' W 044°23'0 0.0
2017-Aug-12 20:25S 02°34' W 044°23'0 0.0
2017-Aug-12 19:16S 02°34' W 044°23'0 0.0
2017-Aug-12 18:52S 02°34' W 044°23'0 0.0
2017-Aug-12 17:58S 02°34' W 044°23'0 0.0
2017-Aug-12 17:28S 02°34' W 044°23'0 0.0
2017-Aug-12 16:58S 02°34' W 044°23'0 0.0
2017-Aug-12 16:25S 02°34' W 044°23'0 0.0
2017-Aug-12 15:58S 02°34' W 044°23'0 0.0
2017-Aug-12 15:28S 02°34' W 044°23'0 0.0
2017-Aug-12 14:59S 02°34' W 044°23'0 0.0
2017-Aug-12 14:29S 02°34' W 044°23'0 0.0
2017-Aug-12 13:47S 02°34' W 044°23'0 0.0
2017-Aug-12 13:25S 02°34' W 044°23'0 0.0
2017-Aug-12 12:55S 02°34' W 044°23'0 0.0
2017-Aug-12 12:29S 02°34' W 044°23'0 0.0
2017-Aug-12 11:59S 02°34' W 044°23'0 0.0
2017-Aug-12 11:25S 02°34' W 044°23'0 0.0
2017-Aug-12 10:58S 02°34' W 044°23'0 0.0
2017-Aug-12 10:28S 02°34' W 044°23'0 0.0
2017-Aug-12 09:58S 02°34' W 044°23'0 0.0
2017-Aug-12 09:28S 02°34' W 044°23'0 0.0
2017-Aug-12 08:58S 02°34' W 044°23'0 0.0
2017-Aug-12 08:30S 02°34' W 044°23'1 1.3
2017-Aug-12 08:01S 02°34' W 044°23'4 8.6
2017-Aug-12 07:31S 02°30' W 044°23'5 9.4
2017-Aug-12 07:01S 02°26' W 044°19'3 5.0
2017-Aug-12 06:28S 02°25' W 044°17'0 0.1
2017-Aug-12 05:58S 02°25' W 044°17'0 0.1
2017-Aug-12 05:28S 02°25' W 044°17'0 0.1
2017-Aug-12 04:58S 02°25' W 044°17'0 0.0
2017-Aug-12 04:28S 02°25' W 044°17'0 0.1
2017-Aug-12 03:58S 02°25' W 044°17'0 0.0
2017-Aug-12 03:28S 02°25' W 044°17'0 0.0
2017-Aug-12 02:58S 02°25' W 044°17'0 0.3
2017-Aug-12 02:28S 02°25' W 044°17'0 0.2
2017-Aug-12 01:58S 02°25' W 044°17'0 0.1
2017-Aug-12 01:28S 02°25' W 044°17'0 0.0
2017-Aug-12 00:58S 02°25' W 044°17'0 0.0
2017-Aug-12 00:28S 02°25' W 044°17'0 0.0
2017-Aug-11 23:58S 02°25' W 044°17'0 0.0
2017-Aug-11 23:28S 02°25' W 044°17'0 0.0
2017-Aug-11 22:58S 02°25' W 044°17'0 0.0
2017-Aug-11 22:28S 02°25' W 044°17'0 0.0
2017-Aug-11 21:58S 02°25' W 044°17'0 0.0
2017-Aug-11 21:28S 02°25' W 044°17'0 0.0
2017-Aug-11 20:58S 02°25' W 044°17'0 0.1
2017-Aug-11 20:28S 02°25' W 044°17'0 0.0
2017-Aug-11 19:58S 02°25' W 044°17'0 0.0
2017-Aug-11 19:28S 02°25' W 044°17'0 0.3
2017-Aug-11 18:58S 02°25' W 044°17'0 0.2
2017-Aug-11 18:28S 02°25' W 044°17'0 0.1
2017-Aug-11 17:58S 02°25' W 044°17'0 0.0
2017-Aug-11 17:28S 02°25' W 044°17'0 0.0
2017-Aug-11 16:58S 02°25' W 044°17'0 0.0
2017-Aug-11 16:28S 02°25' W 044°17'0 0.1
2017-Aug-11 15:58S 02°25' W 044°17'0 0.1
2017-Aug-11 15:28S 02°25' W 044°17'0 0.1
2017-Aug-11 14:58S 02°25' W 044°17'0 0.2
2017-Aug-11 14:28S 02°25' W 044°17'0 0.1
2017-Aug-11 13:28S 02°25' W 044°17'0 0.1
2017-Aug-11 12:58S 02°25' W 044°17'0 0.0
2017-Aug-11 12:28S 02°25' W 044°17'0 0.0
2017-Aug-11 11:58S 02°25' W 044°17'0 0.1
2017-Aug-11 11:28S 02°25' W 044°17'0 0.0
2017-Aug-11 10:58S 02°25' W 044°17'0 0.0
2017-Aug-11 10:28S 02°25' W 044°17'0 0.0
2017-Aug-11 09:58S 02°25' W 044°17'0 0.0
2017-Aug-11 09:28S 02°25' W 044°17'0 0.0
2017-Aug-11 08:58S 02°25' W 044°17'0 0.1
2017-Aug-11 08:28S 02°25' W 044°17'0 0.0
2017-Aug-11 07:58S 02°25' W 044°17'0 0.0
2017-Aug-11 07:28S 02°25' W 044°17'0 0.1
2017-Aug-11 06:58S 02°25' W 044°17'0 0.3
2017-Aug-11 06:28S 02°25' W 044°17'0 0.1
2017-Aug-11 05:58S 02°25' W 044°17'0 0.1
2017-Aug-11 05:28S 02°25' W 044°17'0 0.0
2017-Aug-11 04:58S 02°25' W 044°17'0 0.0
2017-Aug-11 04:28S 02°25' W 044°17'0 0.0
2017-Aug-11 03:55S 02°25' W 044°17'0 0.0
2017-Aug-11 03:28S 02°25' W 044°17'0 0.0
2017-Aug-11 02:58S 02°25' W 044°17'0 0.0
2017-Aug-11 02:28S 02°25' W 044°17'0 0.2
2017-Aug-11 01:58S 02°25' W 044°17'0 0.3
2017-Aug-11 01:28S 02°25' W 044°17'0 0.1
2017-Aug-11 00:58S 02°25' W 044°17'0 0.0
2017-Aug-11 00:28S 02°25' W 044°17'0 0.0
2017-Aug-10 23:58S 02°25' W 044°17'0 0.0
2017-Aug-10 23:28S 02°25' W 044°17'0 0.0
2017-Aug-10 22:58S 02°25' W 044°17'0 0.0
2017-Aug-10 22:28S 02°25' W 044°17'0 0.0
2017-Aug-10 21:55S 02°25' W 044°17'0 0.0
2017-Aug-10 21:28S 02°25' W 044°17'0 0.0
2017-Aug-10 20:58S 02°25' W 044°17'0 0.0
2017-Aug-10 20:28S 02°25' W 044°17'0 0.0
2017-Aug-10 19:58S 02°25' W 044°17'0 0.0
2017-Aug-10 19:28S 02°25' W 044°17'0 0.0
2017-Aug-10 18:58S 02°25' W 044°17'0 0.3
2017-Aug-10 18:28S 02°25' W 044°17'0 0.2
2017-Aug-10 17:58S 02°25' W 044°17'0 0.1
2017-Aug-10 17:28S 02°25' W 044°17'0 0.0
2017-Aug-10 16:58S 02°25' W 044°17'0 0.0
2017-Aug-10 16:28S 02°25' W 044°17'0 0.0
2017-Aug-10 15:58S 02°25' W 044°17'0 0.0
2017-Aug-10 15:28S 02°25' W 044°17'0 0.1
2017-Aug-10 14:58S 02°25' W 044°17'0 0.1
2017-Aug-10 14:28S 02°25' W 044°17'0 0.1
2017-Aug-10 13:58S 02°25' W 044°17'0 0.2
2017-Aug-10 13:28S 02°25' W 044°17'0 0.2
2017-Aug-10 13:01S 02°25' W 044°17'0 0.1
2017-Aug-10 12:28S 02°25' W 044°17'0 0.0
2017-Aug-10 12:01S 02°25' W 044°17'0 0.1
2017-Aug-10 11:28S 02°25' W 044°17'0 0.0
2017-Aug-10 10:57S 02°25' W 044°17'0 0.0
2017-Aug-10 10:28S 02°25' W 044°17'0 0.0
2017-Aug-10 09:59S 02°25' W 044°17'0 0.0
2017-Aug-10 09:24S 02°25' W 044°17'0 0.0
2017-Aug-10 08:58S 02°25' W 044°17'0 0.0
2017-Aug-10 08:30S 02°25' W 044°17'0 0.0
2017-Aug-10 08:01S 02°25' W 044°17'0 0.0
2017-Aug-10 07:31S 02°25' W 044°17'0 0.0
2017-Aug-10 06:58S 02°25' W 044°17'0 0.1
2017-Aug-10 06:28S 02°25' W 044°17'0 0.3
2017-Aug-10 05:58S 02°25' W 044°17'0 0.1
2017-Aug-10 05:31S 02°25' W 044°17'0 0.1
2017-Aug-10 05:01S 02°25' W 044°17'0 0.0
2017-Aug-10 04:28S 02°25' W 044°17'0 0.0
2017-Aug-10 04:01S 02°25' W 044°17'0 0.0
2017-Aug-10 03:30S 02°25' W 044°17'0 0.0
2017-Aug-10 03:01S 02°25' W 044°17'0 0.0
2017-Aug-10 02:30S 02°25' W 044°17'0 0.1
2017-Aug-10 02:01S 02°25' W 044°17'0 0.1
2017-Aug-10 01:30S 02°25' W 044°17'0 0.4
2017-Aug-10 01:00S 02°25' W 044°17'0 0.0
2017-Aug-10 00:27S 02°25' W 044°17'0 0.0
2017-Aug-10 00:00S 02°25' W 044°17'0 0.0
2017-Aug-09 23:30S 02°25' W 044°17'0 0.0
2017-Aug-09 23:00S 02°25' W 044°17'0 0.0
2017-Aug-09 22:31S 02°25' W 044°17'0 0.0
2017-Aug-09 22:00S 02°25' W 044°17'0 0.0
2017-Aug-09 21:30S 02°25' W 044°17'0 0.0
2017-Aug-09 21:00S 02°25' W 044°17'0 0.0
2017-Aug-09 20:30S 02°25' W 044°17'0 0.0
2017-Aug-09 20:00S 02°25' W 044°17'0 0.1
2017-Aug-09 19:30S 02°25' W 044°17'0 0.0
2017-Aug-09 19:00S 02°25' W 044°17'0 0.0
2017-Aug-09 18:30S 02°25' W 044°17'0 0.1
2017-Aug-09 18:00S 02°25' W 044°17'0 0.2
2017-Aug-09 17:30S 02°25' W 044°17'0 0.1
2017-Aug-09 17:00S 02°25' W 044°17'0 0.1
2017-Aug-09 16:30S 02°25' W 044°17'0 0.0
2017-Aug-09 16:00S 02°25' W 044°17'0 0.0
2017-Aug-09 15:30S 02°25' W 044°17'0 0.0
2017-Aug-09 15:00S 02°25' W 044°17'0 0.1
2017-Aug-09 14:30S 02°25' W 044°17'0 0.1
2017-Aug-09 14:00S 02°25' W 044°17'0 0.0
2017-Aug-09 13:30S 02°25' W 044°17'0 0.2
2017-Aug-09 13:00S 02°25' W 044°17'0 0.2
2017-Aug-09 12:30S 02°25' W 044°17'0 0.1
2017-Aug-09 12:00S 02°25' W 044°17'0 0.0
2017-Aug-09 11:27S 02°25' W 044°17'0 0.1
2017-Aug-09 11:00S 02°25' W 044°17'0 0.0
2017-Aug-09 10:30S 02°25' W 044°17'0 0.0
2017-Aug-09 10:00S 02°25' W 044°17'0 0.0
2017-Aug-09 09:30S 02°25' W 044°17'0 0.0
2017-Aug-09 09:00S 02°25' W 044°17'0 0.0
2017-Aug-09 08:30S 02°25' W 044°17'0 0.0
2017-Aug-09 08:00S 02°25' W 044°17'0 0.0
2017-Aug-09 07:30S 02°25' W 044°17'0 0.0
2017-Aug-09 07:00S 02°25' W 044°17'0 0.0
2017-Aug-09 06:30S 02°25' W 044°17'0 0.0
2017-Aug-09 06:00S 02°25' W 044°17'0 0.5
2017-Aug-09 05:30S 02°25' W 044°17'0 0.0
2017-Aug-09 05:00S 02°25' W 044°17'0 0.0
2017-Aug-09 04:30S 02°25' W 044°17'0 0.0
2017-Aug-09 04:00S 02°25' W 044°17'0 0.0
2017-Aug-09 03:30S 02°25' W 044°17'0 0.0
2017-Aug-09 03:00S 02°25' W 044°17'0 0.0
2017-Aug-09 02:30S 02°25' W 044°17'0 0.1
2017-Aug-09 02:00S 02°25' W 044°17'0 0.0
2017-Aug-09 01:30S 02°25' W 044°17'0 0.2
2017-Aug-09 01:00S 02°25' W 044°17'0 0.2
2017-Aug-09 00:30S 02°25' W 044°17'0 0.1
2017-Aug-09 00:00S 02°25' W 044°17'0 0.1
2017-Aug-08 23:30S 02°25' W 044°17'0 0.0
2017-Aug-08 23:00S 02°25' W 044°17'0 0.0
2017-Aug-08 22:27S 02°25' W 044°17'0 0.0
2017-Aug-08 22:00S 02°25' W 044°17'0 0.1
2017-Aug-08 21:30S 02°25' W 044°17'0 0.0
2017-Aug-08 21:00S 02°25' W 044°17'0 0.0
2017-Aug-08 20:30S 02°25' W 044°17'0 0.0
2017-Aug-08 20:00S 02°25' W 044°17'0 0.1
2017-Aug-08 19:30S 02°25' W 044°17'0 0.0
2017-Aug-08 19:00S 02°25' W 044°17'0 0.0
2017-Aug-08 18:30S 02°25' W 044°17'0 0.0
2017-Aug-08 18:00S 02°25' W 044°17'0 0.0
2017-Aug-08 17:30S 02°25' W 044°17'0 0.3
2017-Aug-08 17:00S 02°25' W 044°17'0 0.2
2017-Aug-08 16:30S 02°25' W 044°17'0 0.1
2017-Aug-08 16:00S 02°25' W 044°17'0 0.1
2017-Aug-08 15:30S 02°25' W 044°17'0 0.0
2017-Aug-08 15:00S 02°25' W 044°17'0 0.0
2017-Aug-08 14:27S 02°25' W 044°17'0 0.1
2017-Aug-08 14:00S 02°25' W 044°17'0 0.1
2017-Aug-08 13:30S 02°25' W 044°17'0 0.1
2017-Aug-08 13:00S 02°25' W 044°17'0 0.3
2017-Aug-08 12:30S 02°25' W 044°17'0 0.1
2017-Aug-08 12:00S 02°25' W 044°17'0 0.1
2017-Aug-08 11:30S 02°25' W 044°17'0 0.1
2017-Aug-08 11:00S 02°25' W 044°17'0 0.0
2017-Aug-08 10:30S 02°25' W 044°17'0 0.0
2017-Aug-08 10:00S 02°25' W 044°17'0 0.1
2017-Aug-08 09:30S 02°25' W 044°17'0 0.1
2017-Aug-08 09:00S 02°25' W 044°17'0 0.0
2017-Aug-08 08:30S 02°25' W 044°17'0 0.0
2017-Aug-08 07:54S 02°25' W 044°17'0 0.1
2017-Aug-08 07:30S 02°25' W 044°17'0 0.1
2017-Aug-08 07:00S 02°25' W 044°17'0 0.0
2017-Aug-08 06:30S 02°25' W 044°17'0 0.0
2017-Aug-08 06:00S 02°25' W 044°17'0 0.0
2017-Aug-08 05:30S 02°25' W 044°17'0 0.3
2017-Aug-08 05:00S 02°25' W 044°17'0 0.2
2017-Aug-08 04:30S 02°25' W 044°17'0 0.1
2017-Aug-08 04:00S 02°25' W 044°17'0 0.0
2017-Aug-08 03:30S 02°25' W 044°17'0 0.0
2017-Aug-08 03:00S 02°25' W 044°17'0 0.0
2017-Aug-08 02:30S 02°25' W 044°17'0 0.0
2017-Aug-08 02:00S 02°25' W 044°17'0 0.0
2017-Aug-08 01:30S 02°25' W 044°17'0 0.0
2017-Aug-08 01:00S 02°25' W 044°17'0 0.1
2017-Aug-08 00:30S 02°25' W 044°17'0 0.3
2017-Aug-08 00:00S 02°25' W 044°17'0 0.1
2017-Aug-07 23:30S 02°25' W 044°17'0 0.1
2017-Aug-07 23:00S 02°25' W 044°17'0 0.0
2017-Aug-07 22:30S 02°25' W 044°17'0 0.0
2017-Aug-07 22:00S 02°25' W 044°17'0 0.0
2017-Aug-07 21:30S 02°25' W 044°17'0 0.0
2017-Aug-07 21:00S 02°25' W 044°17'0 0.0
2017-Aug-07 20:30S 02°25' W 044°17'0 0.0
2017-Aug-07 20:00S 02°25' W 044°17'0 0.0
2017-Aug-07 19:30S 02°25' W 044°17'0 0.0
2017-Aug-07 19:00S 02°25' W 044°17'0 0.0
2017-Aug-07 18:30S 02°25' W 044°17'0 0.0
2017-Aug-07 18:00S 02°25' W 044°17'0 0.0
2017-Aug-07 17:30S 02°25' W 044°17'0 0.2
2017-Aug-07 16:57S 02°25' W 044°17'0 0.4
2017-Aug-07 16:27S 02°25' W 044°17'0 0.0
2017-Aug-07 16:00S 02°25' W 044°17'0 0.0
2017-Aug-07 15:30S 02°25' W 044°17'0 0.0
2017-Aug-07 15:00S 02°25' W 044°17'0 0.0
2017-Aug-07 14:30S 02°25' W 044°17'0 0.0
2017-Aug-07 14:00S 02°25' W 044°17'0 0.1
2017-Aug-07 13:30S 02°25' W 044°17'0 0.1
2017-Aug-07 13:00S 02°25' W 044°17'0 0.1
2017-Aug-07 12:30S 02°25' W 044°17'0 0.2
2017-Aug-07 12:00S 02°25' W 044°17'0 0.1
2017-Aug-07 11:30S 02°25' W 044°17'0 0.2
2017-Aug-07 11:00S 02°25' W 044°17'0 0.0
2017-Aug-07 10:30S 02°25' W 044°17'0 0.0
2017-Aug-07 10:00S 02°25' W 044°17'0 0.1
2017-Aug-07 09:30S 02°25' W 044°17'0 0.0
2017-Aug-07 09:00S 02°25' W 044°17'0 0.1
2017-Aug-07 08:30S 02°25' W 044°17'0 0.0
2017-Aug-07 08:00S 02°25' W 044°17'0 0.1
2017-Aug-07 07:30S 02°25' W 044°17'0 0.0
2017-Aug-07 07:00S 02°25' W 044°17'0 0.0
2017-Aug-07 06:30S 02°25' W 044°17'0 0.0
2017-Aug-07 06:00S 02°25' W 044°17'0 0.0
2017-Aug-07 05:30S 02°25' W 044°17'0 0.0
2017-Aug-07 05:00S 02°25' W 044°17'0 0.1
2017-Aug-07 04:30S 02°25' W 044°17'0 0.2
2017-Aug-07 04:00S 02°25' W 044°17'0 0.2
2017-Aug-07 03:30S 02°25' W 044°17'0 0.1
2017-Aug-07 03:00S 02°25' W 044°17'0 0.0
2017-Aug-07 02:30S 02°25' W 044°17'0 0.0
2017-Aug-07 02:00S 02°25' W 044°17'0 0.0
2017-Aug-07 01:30S 02°25' W 044°17'0 0.0
2017-Aug-07 01:00S 02°25' W 044°17'0 0.0
2017-Aug-07 00:30S 02°25' W 044°17'0 0.0
2017-Aug-07 00:00S 02°25' W 044°17'0 0.3
2017-Aug-06 23:30S 02°25' W 044°17'0 0.2
2017-Aug-06 23:00S 02°25' W 044°17'0 0.1
2017-Aug-06 22:30S 02°25' W 044°17'0 0.0
2017-Aug-06 22:00S 02°25' W 044°17'0 0.0
2017-Aug-06 21:30S 02°25' W 044°17'0 0.0
2017-Aug-06 21:00S 02°25' W 044°17'0 0.0
2017-Aug-06 20:30S 02°25' W 044°17'0 0.0
2017-Aug-06 20:00S 02°25' W 044°17'0 0.0
2017-Aug-06 19:30S 02°25' W 044°17'0 0.0
2017-Aug-06 19:00S 02°25' W 044°17'0 0.0
2017-Aug-06 18:30S 02°25' W 044°17'0 0.0
2017-Aug-06 18:00S 02°25' W 044°17'0 0.1
2017-Aug-06 17:30S 02°25' W 044°17'0 0.0
2017-Aug-06 17:00S 02°25' W 044°17'0 0.0
2017-Aug-06 16:30S 02°25' W 044°17'0 0.4
2017-Aug-06 16:00S 02°25' W 044°17'0 0.2
2017-Aug-06 15:30S 02°25' W 044°17'0 0.0
2017-Aug-06 14:58S 02°25' W 044°17'0 0.0
2017-Aug-06 14:30S 02°25' W 044°17'0 0.0
2017-Aug-06 13:19S 02°25' W 044°17'0 0.1
2017-Aug-06 12:19S 02°25' W 044°17'0 0.0
2017-Aug-06 12:00S 02°25' W 044°17'0 0.1
2017-Aug-06 11:30S 02°25' W 044°17'0 0.3
2017-Aug-06 11:00S 02°25' W 044°17'0 0.2
2017-Aug-06 10:30S 02°25' W 044°17'0 0.1
2017-Aug-06 10:00S 02°25' W 044°17'0 0.0
2017-Aug-06 09:30S 02°25' W 044°17'0 0.0
2017-Aug-06 09:00S 02°25' W 044°17'0 0.0
2017-Aug-06 08:30S 02°25' W 044°17'0 0.0
2017-Aug-06 08:00S 02°25' W 044°17'0 0.0
2017-Aug-06 07:30S 02°25' W 044°17'0 0.0
2017-Aug-06 07:00S 02°25' W 044°17'0 0.0
2017-Aug-06 06:30S 02°25' W 044°17'0 0.0
2017-Aug-06 06:00S 02°25' W 044°17'0 0.0
2017-Aug-06 05:30S 02°25' W 044°17'0 0.0
2017-Aug-06 05:00S 02°25' W 044°17'0 0.0
2017-Aug-06 04:30S 02°25' W 044°17'0 0.1
2017-Aug-06 04:00S 02°25' W 044°17'0 0.2
2017-Aug-06 03:30S 02°25' W 044°17'0 0.2
2017-Aug-06 03:00S 02°25' W 044°17'0 0.0
2017-Aug-06 02:30S 02°25' W 044°17'0 0.0
2017-Aug-06 02:00S 02°25' W 044°17'0 0.0
2017-Aug-06 01:30S 02°25' W 044°17'0 0.0
2017-Aug-06 01:00S 02°25' W 044°17'0 0.0
2017-Aug-06 00:30S 02°25' W 044°17'0 0.0
2017-Aug-06 00:00S 02°25' W 044°17'0 0.0
2017-Aug-05 23:30S 02°25' W 044°17'0 0.4
2017-Aug-05 23:00S 02°25' W 044°17'0 0.2
2017-Aug-05 22:30S 02°25' W 044°17'0 0.0
2017-Aug-05 21:57S 02°25' W 044°17'0 0.0
2017-Aug-05 21:30S 02°25' W 044°17'0 0.0
2017-Aug-05 21:00S 02°25' W 044°17'0 0.0
2017-Aug-05 20:30S 02°25' W 044°17'0 0.0
2017-Aug-05 19:57S 02°25' W 044°17'0 0.0
2017-Aug-05 19:30S 02°25' W 044°17'0 0.0
2017-Aug-05 19:00S 02°25' W 044°17'0 0.0
2017-Aug-05 18:27S 02°25' W 044°17'0 0.0
2017-Aug-05 18:00S 02°25' W 044°17'0 0.0
2017-Aug-05 17:30S 02°25' W 044°17'0 0.0
2017-Aug-05 17:00S 02°25' W 044°17'0 0.0
2017-Aug-05 16:29S 02°25' W 044°17'0 0.0
2017-Aug-05 15:57S 02°25' W 044°17'0 0.0
2017-Aug-05 15:30S 02°25' W 044°17'0 0.3
2017-Aug-05 14:59S 02°25' W 044°17'0 0.2
2017-Aug-05 14:27S 02°25' W 044°17'0 0.1
2017-Aug-05 14:00S 02°25' W 044°17'0 0.0
2017-Aug-05 13:29S 02°25' W 044°17'0 0.0
2017-Aug-05 13:00S 02°25' W 044°17'0 0.0
2017-Aug-05 12:29S 02°25' W 044°17'0 0.0
2017-Aug-05 12:00S 02°25' W 044°17'0 0.1
2017-Aug-05 11:29S 02°25' W 044°17'0 0.0
2017-Aug-05 10:59S 02°25' W 044°17'0 0.3
2017-Aug-05 10:27S 02°25' W 044°17'0 0.1
2017-Aug-05 09:59S 02°25' W 044°17'0 0.1
2017-Aug-05 09:29S 02°25' W 044°17'0 0.1
2017-Aug-05 08:59S 02°25' W 044°17'0 0.0
2017-Aug-05 08:30S 02°25' W 044°17'0 0.0
2017-Aug-05 07:56S 02°25' W 044°17'0 0.0
2017-Aug-05 07:29S 02°25' W 044°17'0 0.0
2017-Aug-05 07:00S 02°25' W 044°17'0 0.0
2017-Aug-05 06:29S 02°25' W 044°17'0 0.0
2017-Aug-05 05:59S 02°25' W 044°17'0 0.0
2017-Aug-05 05:29S 02°25' W 044°17'0 0.0
2017-Aug-05 04:59S 02°25' W 044°17'0 0.0
2017-Aug-05 04:29S 02°25' W 044°17'0 0.0
2017-Aug-05 03:59S 02°25' W 044°17'0 0.1
2017-Aug-05 03:29S 02°25' W 044°17'0 0.1
2017-Aug-05 02:59S 02°25' W 044°17'0 0.2
2017-Aug-05 02:26S 02°25' W 044°17'0 0.1
2017-Aug-05 01:59S 02°25' W 044°17'0 0.1
2017-Aug-05 01:29S 02°25' W 044°17'0 0.0
2017-Aug-05 00:59S 02°25' W 044°17'0 0.0
2017-Aug-05 00:29S 02°25' W 044°17'0 0.0
2017-Aug-04 23:59S 02°25' W 044°17'0 0.1
2017-Aug-04 23:29S 02°25' W 044°17'0 0.0
2017-Aug-04 22:59S 02°25' W 044°17'0 0.2
2017-Aug-04 22:29S 02°25' W 044°17'0 0.2
2017-Aug-04 21:59S 02°25' W 044°17'0 0.1
2017-Aug-04 21:29S 02°25' W 044°17'0 0.1
2017-Aug-04 20:59S 02°25' W 044°17'0 0.0
2017-Aug-04 20:29S 02°25' W 044°17'0 0.0
2017-Aug-04 19:59S 02°25' W 044°17'0 0.0
2017-Aug-04 19:29S 02°25' W 044°17'0 0.0
2017-Aug-04 18:59S 02°25' W 044°17'0 0.0
2017-Aug-04 18:29S 02°25' W 044°17'0 0.0
2017-Aug-04 17:59S 02°25' W 044°17'0 0.0
2017-Aug-04 17:29S 02°25' W 044°17'0 0.0
2017-Aug-04 16:59S 02°25' W 044°17'0 0.0
2017-Aug-04 16:29S 02°25' W 044°17'0 0.0
2017-Aug-04 15:59S 02°25' W 044°17'0 0.0
2017-Aug-04 15:23S 02°25' W 044°17'0 0.0
2017-Aug-04 14:59S 02°25' W 044°17'0 0.1
2017-Aug-04 13:59S 02°25' W 044°17'0 0.2
2017-Aug-04 13:29S 02°25' W 044°17'0 0.1
2017-Aug-04 12:59S 02°25' W 044°17'0 0.0
2017-Aug-04 12:29S 02°25' W 044°17'0 0.0
2017-Aug-04 11:59S 02°25' W 044°17'0 0.0
2017-Aug-04 11:29S 02°25' W 044°17'0 0.0
2017-Aug-04 10:59S 02°25' W 044°17'0 0.1
2017-Aug-04 10:29S 02°25' W 044°17'0 0.1
2017-Aug-04 09:59S 02°25' W 044°17'0 0.2
2017-Aug-04 09:29S 02°25' W 044°17'0 0.1
2017-Aug-04 08:59S 02°25' W 044°17'0 0.0
2017-Aug-04 08:29S 02°25' W 044°17'0 0.0
2017-Aug-04 07:59S 02°25' W 044°17'0 0.0
2017-Aug-04 07:29S 02°25' W 044°17'0 0.0
2017-Aug-04 06:59S 02°25' W 044°17'0 0.0
2017-Aug-04 06:29S 02°25' W 044°17'0 0.0
2017-Aug-04 05:59S 02°25' W 044°17'0 0.0
2017-Aug-04 05:29S 02°25' W 044°17'0 0.0
2017-Aug-04 04:59S 02°25' W 044°17'0 0.0
2017-Aug-04 04:29S 02°25' W 044°17'0 0.0
2017-Aug-04 03:53S 02°25' W 044°17'0 0.0
2017-Aug-04 03:29S 02°25' W 044°17'0 0.0
2017-Aug-04 02:59S 02°25' W 044°17'0 0.1
2017-Aug-04 02:29S 02°25' W 044°17'0 0.0
2017-Aug-04 01:59S 02°25' W 044°17'0 0.3
2017-Aug-04 01:29S 02°25' W 044°17'0 0.2
2017-Aug-04 00:59S 02°25' W 044°17'0 0.0
2017-Aug-04 00:29S 02°25' W 044°17'0 0.1
2017-Aug-03 23:59S 02°25' W 044°17'0 0.0
2017-Aug-03 23:26S 02°25' W 044°17'0 0.1
2017-Aug-03 22:59S 02°25' W 044°17'0 0.1
2017-Aug-03 22:29S 02°25' W 044°17'0 0.2
2017-Aug-03 21:59S 02°25' W 044°17'0 0.3
2017-Aug-03 21:23S 02°25' W 044°17'0 0.0
2017-Aug-03 20:59S 02°25' W 044°17'0 0.0
2017-Aug-03 20:29S 02°25' W 044°17'0 0.0
2017-Aug-03 19:59S 02°25' W 044°17'0 0.0
2017-Aug-03 19:29S 02°25' W 044°17'0 0.0
2017-Aug-03 18:59S 02°25' W 044°17'0 0.0
2017-Aug-03 18:29S 02°25' W 044°17'0 0.0
2017-Aug-03 17:59S 02°25' W 044°17'0 0.0
2017-Aug-03 17:29S 02°25' W 044°17'0 0.0
2017-Aug-03 16:59S 02°25' W 044°17'0 0.0
2017-Aug-03 16:29S 02°25' W 044°17'0 0.0
2017-Aug-03 15:56S 02°25' W 044°17'0 0.0
2017-Aug-03 15:29S 02°25' W 044°17'0 0.0
2017-Aug-03 14:59S 02°25' W 044°17'  

Dump ship's entire track history